GPX4GL ELLX-BKPR
Flight info
| Callsign | GPX4GL |
|---|---|
| Flight time | 1h 58m |
| Altitude | 37000 |
| Route | GTQ DCT BEGAR N491 DEGES N871 MADEB N606 ELMEM L607 GEDSO DCT VEKEN DCT NEMEK DCT RETRA DCT ARBER ARBER1D |
| Aircraft | B738/M-SDE2E3FGHIRWXY/LB1 |
Departure
| Time | 2026-04-28 18:05 |
|---|---|
| Airport | Luxembourg-Findel International Airport (ELLX) |
Arrival
| Time | 2026-04-28 20:04 |
|---|---|
| Airport | Priština Adem Jashari International Airport (BKPR) |
| Time | Latitude | Longitude | Altitude | Speed | Heading |
|---|---|---|---|---|---|
| 2026-04-28 17:23 | 49.63386 | 6.21791 | 1218 ft | 0 kts | 330° |
| 2026-04-28 17:54 | 49.63379 | 6.21796 | 1218 ft | 2 kts | 328° |
| 2026-04-28 17:54 | 49.63365 | 6.21811 | 1218 ft | 2 kts | 323° |
| 2026-04-28 17:54 | 49.63353 | 6.21827 | 1218 ft | 2 kts | 308° |
| 2026-04-28 17:54 | 49.63347 | 6.21850 | 1217 ft | 2 kts | 257° |
| 2026-04-28 17:55 | 49.63351 | 6.21868 | 1217 ft | 1 kts | 239° |
| 2026-04-28 17:55 | 49.63352 | 6.21869 | 1217 ft | 0 kts | 239° |
| 2026-04-28 17:58 | 49.63350 | 6.21863 | 1217 ft | 3 kts | 239° |
| 2026-04-28 17:58 | 49.63326 | 6.21817 | 1217 ft | 6 kts | 211° |
| 2026-04-28 17:58 | 49.63285 | 6.21826 | 1217 ft | 6 kts | 153° |
| 2026-04-28 17:58 | 49.63246 | 6.21861 | 1217 ft | 8 kts | 149° |
| 2026-04-28 17:59 | 49.63194 | 6.21910 | 1217 ft | 9 kts | 157° |
| 2026-04-28 17:59 | 49.63147 | 6.21865 | 1218 ft | 9 kts | 241° |
| 2026-04-28 17:59 | 49.63120 | 6.21779 | 1217 ft | 9 kts | 245° |
| 2026-04-28 17:59 | 49.63091 | 6.21689 | 1217 ft | 11 kts | 243° |
| 2026-04-28 18:00 | 49.63052 | 6.21565 | 1217 ft | 14 kts | 245° |
| 2026-04-28 18:00 | 49.63005 | 6.21411 | 1217 ft | 17 kts | 245° |
| 2026-04-28 18:00 | 49.62949 | 6.21232 | 1217 ft | 19 kts | 244° |
| 2026-04-28 18:00 | 49.62892 | 6.21048 | 1217 ft | 19 kts | 244° |
| 2026-04-28 18:01 | 49.62836 | 6.20867 | 1217 ft | 18 kts | 244° |
| 2026-04-28 18:01 | 49.62767 | 6.20707 | 1217 ft | 18 kts | 224° |
| 2026-04-28 18:01 | 49.62671 | 6.20591 | 1217 ft | 17 kts | 222° |
| 2026-04-28 18:01 | 49.62592 | 6.20459 | 1218 ft | 16 kts | 229° |
| 2026-04-28 18:02 | 49.62519 | 6.20327 | 1218 ft | 16 kts | 232° |
| 2026-04-28 18:02 | 49.62462 | 6.20186 | 1220 ft | 15 kts | 241° |
| 2026-04-28 18:02 | 49.62410 | 6.20048 | 1222 ft | 15 kts | 240° |
| 2026-04-28 18:02 | 49.62360 | 6.19915 | 1224 ft | 14 kts | 240° |
| 2026-04-28 18:03 | 49.62312 | 6.19786 | 1225 ft | 14 kts | 241° |
| 2026-04-28 18:03 | 49.62267 | 6.19662 | 1226 ft | 13 kts | 240° |
| 2026-04-28 18:03 | 49.62215 | 6.19555 | 1225 ft | 13 kts | 205° |
| 2026-04-28 18:03 | 49.62135 | 6.19596 | 1224 ft | 12 kts | 149° |
| 2026-04-28 18:04 | 49.62090 | 6.19643 | 1224 ft | 6 kts | 120° |
| 2026-04-28 18:04 | 49.62102 | 6.19697 | 1225 ft | 6 kts | 60° |
| 2026-04-28 18:04 | 49.62185 | 6.19919 | 1225 ft | 57 kts | 60° |
| 2026-04-28 18:04 | 49.62510 | 6.20793 | 1218 ft | 127 kts | 60° |
| 2026-04-28 18:05 | 49.63038 | 6.22200 | 1278 ft | 174 kts | 60° |
| 2026-04-28 18:05 | 49.63453 | 6.23301 | 1727 ft | 178 kts | 60° |
| 2026-04-28 18:05 | 49.64281 | 6.25490 | 2832 ft | 180 kts | 60° |
| 2026-04-28 18:05 | 49.64570 | 6.27441 | 3291 ft | 205 kts | 101° |
| 2026-04-28 18:06 | 49.63820 | 6.29330 | 3728 ft | 215 kts | 141° |
| 2026-04-28 18:06 | 49.62611 | 6.30771 | 4257 ft | 229 kts | 142° |
| 2026-04-28 18:06 | 49.61190 | 6.32195 | 4525 ft | 258 kts | 155° |
| 2026-04-28 18:06 | 49.59504 | 6.33312 | 5197 ft | 268 kts | 159° |
| 2026-04-28 18:07 | 49.57750 | 6.34372 | 6056 ft | 273 kts | 159° |
| 2026-04-28 18:07 | 49.55970 | 6.35440 | 7049 ft | 275 kts | 159° |
| 2026-04-28 18:07 | 49.54179 | 6.36533 | 7997 ft | 279 kts | 159° |
| 2026-04-28 18:07 | 49.52365 | 6.37654 | 8913 ft | 283 kts | 158° |
| 2026-04-28 18:08 | 49.50524 | 6.38804 | 9822 ft | 287 kts | 158° |
| 2026-04-28 18:08 | 49.48653 | 6.39982 | 10545 ft | 299 kts | 158° |
| 2026-04-28 18:08 | 49.46635 | 6.41257 | 10772 ft | 327 kts | 158° |
| 2026-04-28 18:08 | 49.44478 | 6.42626 | 11294 ft | 341 kts | 158° |
| 2026-04-28 18:09 | 49.42262 | 6.44036 | 12097 ft | 346 kts | 158° |
| 2026-04-28 18:09 | 49.40029 | 6.45459 | 12959 ft | 349 kts | 158° |
| 2026-04-28 18:09 | 49.37773 | 6.46895 | 13760 ft | 354 kts | 158° |
| 2026-04-28 18:09 | 49.35485 | 6.48352 | 14538 ft | 358 kts | 158° |
| 2026-04-28 18:10 | 49.33170 | 6.49825 | 15301 ft | 362 kts | 158° |
| 2026-04-28 18:10 | 49.30832 | 6.51311 | 16050 ft | 366 kts | 158° |
| 2026-04-28 18:10 | 49.28462 | 6.52816 | 16779 ft | 370 kts | 158° |
| 2026-04-28 18:10 | 49.26069 | 6.54335 | 17484 ft | 374 kts | 158° |
| 2026-04-28 18:11 | 49.23652 | 6.55866 | 18169 ft | 378 kts | 158° |
| 2026-04-28 18:11 | 49.21206 | 6.57415 | 18849 ft | 382 kts | 158° |
| 2026-04-28 18:11 | 49.18738 | 6.58975 | 19502 ft | 386 kts | 158° |
| 2026-04-28 18:11 | 49.16236 | 6.60555 | 20133 ft | 390 kts | 158° |
| 2026-04-28 18:12 | 49.13717 | 6.62145 | 20748 ft | 394 kts | 158° |
| 2026-04-28 18:12 | 49.11180 | 6.63744 | 21354 ft | 397 kts | 158° |
| 2026-04-28 18:12 | 49.08610 | 6.65362 | 21922 ft | 401 kts | 158° |
| 2026-04-28 18:12 | 49.06054 | 6.66970 | 22467 ft | 404 kts | 158° |
| 2026-04-28 18:13 | 49.03440 | 6.68613 | 23008 ft | 408 kts | 158° |
| 2026-04-28 18:13 | 49.00807 | 6.70265 | 23532 ft | 411 kts | 158° |
| 2026-04-28 18:13 | 48.98128 | 6.71995 | 24046 ft | 415 kts | 155° |
| 2026-04-28 18:13 | 48.95581 | 6.73979 | 24538 ft | 418 kts | 152° |
| 2026-04-28 18:14 | 48.93016 | 6.76091 | 25024 ft | 421 kts | 152° |
| 2026-04-28 18:14 | 48.90439 | 6.78248 | 25510 ft | 424 kts | 151° |
| 2026-04-28 18:14 | 48.87844 | 6.80422 | 25948 ft | 427 kts | 152° |
| 2026-04-28 18:14 | 48.85225 | 6.82602 | 26374 ft | 430 kts | 152° |
| 2026-04-28 18:15 | 48.82591 | 6.84780 | 26794 ft | 433 kts | 152° |
| 2026-04-28 18:15 | 48.79929 | 6.86967 | 27205 ft | 436 kts | 152° |
| 2026-04-28 18:15 | 48.77255 | 6.89155 | 27604 ft | 439 kts | 152° |
| 2026-04-28 18:15 | 48.74557 | 6.91357 | 27985 ft | 441 kts | 152° |
| 2026-04-28 18:16 | 48.71845 | 6.93565 | 28362 ft | 444 kts | 152° |
| 2026-04-28 18:16 | 48.69115 | 6.95786 | 28726 ft | 447 kts | 152° |
| 2026-04-28 18:16 | 48.66368 | 6.98017 | 29082 ft | 449 kts | 152° |
| 2026-04-28 18:16 | 48.63611 | 7.00254 | 29427 ft | 452 kts | 152° |
| 2026-04-28 18:17 | 48.60838 | 7.02501 | 29768 ft | 454 kts | 152° |
| 2026-04-28 18:17 | 48.58045 | 7.04762 | 30078 ft | 456 kts | 152° |
| 2026-04-28 18:17 | 48.55199 | 7.07063 | 30395 ft | 458 kts | 152° |
| 2026-04-28 18:17 | 48.52417 | 7.09309 | 30692 ft | 461 kts | 152° |
| 2026-04-28 18:18 | 48.49584 | 7.11594 | 30981 ft | 463 kts | 152° |
| 2026-04-28 18:18 | 48.46704 | 7.13913 | 31279 ft | 464 kts | 152° |
| 2026-04-28 18:18 | 48.43900 | 7.16169 | 31648 ft | 464 kts | 152° |
| 2026-04-28 18:18 | 48.41977 | 7.17714 | 31947 ft | 462 kts | 152° |
| 2026-04-28 18:19 | 48.38222 | 7.20728 | 32497 ft | 460 kts | 152° |
| 2026-04-28 18:19 | 48.35401 | 7.22989 | 32845 ft | 460 kts | 152° |
| 2026-04-28 18:19 | 48.32575 | 7.25251 | 33178 ft | 460 kts | 152° |
| 2026-04-28 18:19 | 48.29757 | 7.27503 | 33537 ft | 459 kts | 152° |
| 2026-04-28 18:20 | 48.26944 | 7.29748 | 33897 ft | 458 kts | 152° |
| 2026-04-28 18:20 | 48.24130 | 7.31992 | 34232 ft | 457 kts | 152° |
| 2026-04-28 18:20 | 48.21325 | 7.34226 | 34539 ft | 457 kts | 152° |
| 2026-04-28 18:20 | 48.18512 | 7.36463 | 34858 ft | 456 kts | 152° |
| 2026-04-28 18:21 | 48.15713 | 7.38687 | 35179 ft | 455 kts | 152° |
| 2026-04-28 18:21 | 48.12912 | 7.40909 | 35483 ft | 455 kts | 152° |
| 2026-04-28 18:21 | 48.10116 | 7.43125 | 35767 ft | 454 kts | 152° |
| 2026-04-28 18:21 | 48.07326 | 7.45332 | 36060 ft | 454 kts | 152° |
| 2026-04-28 18:22 | 48.04539 | 7.47536 | 36319 ft | 454 kts | 152° |
| 2026-04-28 18:22 | 48.01748 | 7.49740 | 36528 ft | 455 kts | 152° |
| 2026-04-28 18:22 | 47.98944 | 7.51952 | 36769 ft | 455 kts | 152° |
| 2026-04-28 18:22 | 47.96148 | 7.54157 | 37423 ft | 455 kts | 156° |
| 2026-04-28 18:23 | 47.93390 | 7.56607 | 37206 ft | 470 kts | 146° |
| 2026-04-28 18:23 | 47.91000 | 7.60002 | 37156 ft | 482 kts | 132° |
| 2026-04-28 18:23 | 47.89139 | 7.64210 | 37097 ft | 490 kts | 117° |
| 2026-04-28 18:23 | 47.88283 | 7.67329 | 37062 ft | 492 kts | 110° |
| 2026-04-28 18:24 | 47.86364 | 7.75295 | 37049 ft | 492 kts | 111° |
| 2026-04-28 18:24 | 47.83752 | 7.85543 | 37054 ft | 491 kts | 112° |
| 2026-04-28 18:25 | 47.81267 | 7.94994 | 37056 ft | 489 kts | 112° |
| 2026-04-28 18:26 | 47.77562 | 8.09048 | 37059 ft | 486 kts | 112° |
| 2026-04-28 18:26 | 47.75255 | 8.18286 | 37073 ft | 485 kts | 111° |
| 2026-04-28 18:27 | 47.72946 | 8.27695 | 37069 ft | 483 kts | 111° |
| 2026-04-28 18:27 | 47.70644 | 8.36944 | 37074 ft | 482 kts | 111° |
| 2026-04-28 18:28 | 47.68303 | 8.46264 | 37077 ft | 481 kts | 111° |
| 2026-04-28 18:28 | 47.65937 | 8.55556 | 37072 ft | 481 kts | 111° |
| 2026-04-28 18:29 | 47.63562 | 8.64840 | 37078 ft | 481 kts | 111° |
| 2026-04-28 18:29 | 47.61178 | 8.74142 | 37073 ft | 482 kts | 111° |
| 2026-04-28 18:30 | 47.58591 | 8.83234 | 37058 ft | 482 kts | 121° |
| 2026-04-28 18:30 | 47.54845 | 8.91418 | 37073 ft | 481 kts | 128° |
| 2026-04-28 18:31 | 47.50964 | 8.99496 | 37067 ft | 482 kts | 127° |
| 2026-04-28 18:31 | 47.47133 | 9.07650 | 37066 ft | 483 kts | 126° |
| 2026-04-28 18:32 | 47.43391 | 9.15921 | 37053 ft | 485 kts | 118° |
| 2026-04-28 18:32 | 47.41248 | 9.25325 | 37072 ft | 486 kts | 98° |
| 2026-04-28 18:33 | 47.40992 | 9.35254 | 37081 ft | 484 kts | 88° |
| 2026-04-28 18:33 | 47.41024 | 9.45212 | 37068 ft | 485 kts | 89° |
| 2026-04-28 18:34 | 47.40956 | 9.55155 | 37072 ft | 484 kts | 89° |
| 2026-04-28 18:34 | 47.40814 | 9.65019 | 37080 ft | 483 kts | 93° |
| 2026-04-28 18:35 | 47.39719 | 9.74807 | 37076 ft | 484 kts | 101° |
| 2026-04-28 18:35 | 47.38364 | 9.84544 | 37074 ft | 484 kts | 101° |
| 2026-04-28 18:36 | 47.37039 | 9.94326 | 37062 ft | 484 kts | 100° |
| 2026-04-28 18:36 | 47.35756 | 10.04026 | 37030 ft | 484 kts | 100° |
| 2026-04-28 18:37 | 47.34468 | 10.13737 | 37030 ft | 482 kts | 100° |
| 2026-04-28 18:37 | 47.33177 | 10.23395 | 37044 ft | 481 kts | 100° |
| 2026-04-28 18:38 | 47.31869 | 10.33073 | 37064 ft | 481 kts | 100° |
| 2026-04-28 18:38 | 47.30541 | 10.42752 | 37065 ft | 482 kts | 100° |
| 2026-04-28 18:39 | 47.29204 | 10.52444 | 37068 ft | 483 kts | 101° |
| 2026-04-28 18:39 | 47.27830 | 10.62137 | 37064 ft | 483 kts | 101° |
| 2026-04-28 18:40 | 47.26348 | 10.71792 | 37098 ft | 484 kts | 102° |
| 2026-04-28 18:40 | 47.24851 | 10.81400 | 37064 ft | 485 kts | 101° |
| 2026-04-28 18:41 | 47.23352 | 10.91060 | 37069 ft | 484 kts | 102° |
| 2026-04-28 18:41 | 47.21850 | 11.00727 | 37061 ft | 484 kts | 102° |
| 2026-04-28 18:42 | 47.20349 | 11.10354 | 37039 ft | 482 kts | 102° |
| 2026-04-28 18:42 | 47.18840 | 11.19958 | 37060 ft | 481 kts | 102° |
| 2026-04-28 18:43 | 47.17324 | 11.29543 | 37049 ft | 481 kts | 102° |
| 2026-04-28 18:43 | 47.15802 | 11.39114 | 37064 ft | 480 kts | 102° |
| 2026-04-28 18:44 | 47.14274 | 11.48675 | 37058 ft | 480 kts | 102° |
| 2026-04-28 18:44 | 47.11981 | 11.62918 | 37059 ft | 480 kts | 102° |
| 2026-04-28 18:45 | 47.10434 | 11.72459 | 37074 ft | 480 kts | 102° |
| 2026-04-28 18:45 | 47.08884 | 11.81973 | 37116 ft | 477 kts | 102° |
| 2026-04-28 18:46 | 47.06815 | 11.91221 | 37074 ft | 479 kts | 115° |
| 2026-04-28 18:46 | 47.03857 | 11.99981 | 37084 ft | 480 kts | 117° |
| 2026-04-28 18:47 | 47.00843 | 12.08697 | 37127 ft | 480 kts | 116° |
| 2026-04-28 18:47 | 46.97862 | 12.17450 | 37128 ft | 480 kts | 116° |
| 2026-04-28 18:48 | 46.94905 | 12.26208 | 37148 ft | 480 kts | 116° |
| 2026-04-28 18:48 | 46.91944 | 12.34975 | 37143 ft | 480 kts | 116° |
| 2026-04-28 18:49 | 46.89485 | 12.42225 | 37162 ft | 480 kts | 116° |
| 2026-04-28 18:49 | 46.86005 | 12.52446 | 37143 ft | 480 kts | 116° |
| 2026-04-28 18:50 | 46.83029 | 12.61155 | 37155 ft | 480 kts | 116° |
| 2026-04-28 18:50 | 46.80043 | 12.69865 | 37131 ft | 480 kts | 116° |
| 2026-04-28 18:51 | 46.77041 | 12.78591 | 37114 ft | 481 kts | 116° |
| 2026-04-28 18:51 | 46.74036 | 12.87296 | 37101 ft | 479 kts | 116° |
| 2026-04-28 18:52 | 46.71039 | 12.95949 | 37111 ft | 478 kts | 116° |
| 2026-04-28 18:52 | 46.68054 | 13.04540 | 37102 ft | 478 kts | 116° |
| 2026-04-28 18:53 | 46.65051 | 13.13159 | 37115 ft | 477 kts | 116° |
| 2026-04-28 18:53 | 46.62046 | 13.21756 | 37115 ft | 476 kts | 116° |
| 2026-04-28 18:54 | 46.59037 | 13.30337 | 37117 ft | 476 kts | 116° |
| 2026-04-28 18:54 | 46.55962 | 13.38849 | 37098 ft | 476 kts | 122° |
| 2026-04-28 18:55 | 46.52813 | 13.45365 | 37112 ft | 475 kts | 126° |
| 2026-04-28 18:55 | 46.48209 | 13.54370 | 37118 ft | 474 kts | 126° |
| 2026-04-28 18:56 | 46.44298 | 13.62056 | 37081 ft | 473 kts | 126° |
| 2026-04-28 18:56 | 46.40449 | 13.69682 | 37088 ft | 471 kts | 126° |
| 2026-04-28 18:57 | 46.36586 | 13.77344 | 37119 ft | 471 kts | 126° |
| 2026-04-28 18:57 | 46.32707 | 13.85023 | 37107 ft | 473 kts | 126° |
| 2026-04-28 18:58 | 46.28816 | 13.92697 | 37109 ft | 474 kts | 126° |
| 2026-04-28 18:58 | 46.26452 | 13.97348 | 37120 ft | 475 kts | 126° |
| 2026-04-28 18:59 | 46.22534 | 14.05039 | 37107 ft | 476 kts | 126° |
| 2026-04-28 18:59 | 46.18605 | 14.12731 | 37118 ft | 475 kts | 126° |
| 2026-04-28 19:00 | 46.14667 | 14.20419 | 37116 ft | 476 kts | 126° |
| 2026-04-28 19:00 | 46.10724 | 14.28096 | 37120 ft | 476 kts | 126° |
| 2026-04-28 19:01 | 46.06779 | 14.35757 | 37103 ft | 476 kts | 126° |
| 2026-04-28 19:01 | 46.02855 | 14.43355 | 37106 ft | 475 kts | 126° |
| 2026-04-28 19:02 | 45.98904 | 14.50984 | 37112 ft | 475 kts | 126° |
| 2026-04-28 19:02 | 45.94947 | 14.58606 | 37104 ft | 475 kts | 126° |
| 2026-04-28 19:03 | 45.90995 | 14.66198 | 37092 ft | 474 kts | 126° |
| 2026-04-28 19:03 | 45.87042 | 14.73770 | 37090 ft | 474 kts | 126° |
| 2026-04-28 19:04 | 45.83071 | 14.81358 | 37120 ft | 478 kts | 127° |
| 2026-04-28 19:04 | 45.79077 | 14.88968 | 37126 ft | 484 kts | 127° |
| 2026-04-28 19:05 | 45.75017 | 14.96683 | 37115 ft | 485 kts | 127° |
| 2026-04-28 19:05 | 45.70945 | 15.04401 | 37111 ft | 486 kts | 127° |
| 2026-04-28 19:06 | 45.67533 | 15.10852 | 37106 ft | 485 kts | 127° |
| 2026-04-28 19:06 | 45.62798 | 15.19781 | 37102 ft | 484 kts | 127° |
| 2026-04-28 19:07 | 45.58732 | 15.27427 | 37106 ft | 483 kts | 128° |
| 2026-04-28 19:07 | 45.54159 | 15.34381 | 37111 ft | 480 kts | 139° |
| 2026-04-28 19:08 | 45.49200 | 15.40728 | 37094 ft | 478 kts | 139° |
| 2026-04-28 19:08 | 45.44244 | 15.47033 | 37095 ft | 477 kts | 139° |
| 2026-04-28 19:09 | 45.39327 | 15.53350 | 37093 ft | 476 kts | 139° |
| 2026-04-28 19:09 | 45.34422 | 15.59681 | 37093 ft | 475 kts | 139° |
| 2026-04-28 19:10 | 45.29525 | 15.65997 | 37087 ft | 475 kts | 139° |
| 2026-04-28 19:10 | 45.24625 | 15.72299 | 37087 ft | 475 kts | 139° |
| 2026-04-28 19:11 | 45.19721 | 15.78589 | 37092 ft | 475 kts | 139° |
| 2026-04-28 19:11 | 45.14813 | 15.84868 | 37088 ft | 475 kts | 139° |
| 2026-04-28 19:12 | 45.10729 | 15.90081 | 37091 ft | 476 kts | 139° |
| 2026-04-28 19:12 | 45.05005 | 15.97369 | 37083 ft | 476 kts | 139° |
| 2026-04-28 19:13 | 45.00869 | 16.02622 | 37089 ft | 477 kts | 139° |
| 2026-04-28 19:13 | 44.95957 | 16.08849 | 37090 ft | 477 kts | 139° |
| 2026-04-28 19:14 | 44.91019 | 16.15092 | 37084 ft | 477 kts | 139° |
| 2026-04-28 19:14 | 44.86069 | 16.21336 | 37075 ft | 477 kts | 138° |
| 2026-04-28 19:15 | 44.81123 | 16.27559 | 37091 ft | 476 kts | 138° |
| 2026-04-28 19:15 | 44.77016 | 16.32717 | 37082 ft | 475 kts | 139° |
| 2026-04-28 19:16 | 44.71247 | 16.39943 | 37089 ft | 475 kts | 139° |
| 2026-04-28 19:16 | 44.66312 | 16.46108 | 37094 ft | 474 kts | 139° |
| 2026-04-28 19:17 | 44.61385 | 16.52250 | 37086 ft | 474 kts | 139° |
| 2026-04-28 19:17 | 44.56452 | 16.58384 | 37092 ft | 473 kts | 139° |
| 2026-04-28 19:18 | 44.51547 | 16.64468 | 37091 ft | 473 kts | 139° |
| 2026-04-28 19:18 | 44.46619 | 16.70568 | 37092 ft | 473 kts | 139° |
| 2026-04-28 19:19 | 44.41678 | 16.76669 | 37091 ft | 473 kts | 139° |
| 2026-04-28 19:19 | 44.36770 | 16.82714 | 37097 ft | 473 kts | 139° |
| 2026-04-28 19:20 | 44.31827 | 16.88789 | 37086 ft | 473 kts | 139° |
| 2026-04-28 19:20 | 44.26875 | 16.94861 | 37088 ft | 473 kts | 139° |
| 2026-04-28 19:21 | 44.21921 | 17.00921 | 37095 ft | 473 kts | 139° |
| 2026-04-28 19:21 | 44.16963 | 17.06971 | 37093 ft | 474 kts | 139° |
| 2026-04-28 19:22 | 44.12840 | 17.11992 | 37091 ft | 474 kts | 139° |
| 2026-04-28 19:22 | 44.07031 | 17.19050 | 37103 ft | 475 kts | 139° |
| 2026-04-28 19:23 | 44.02046 | 17.25091 | 37092 ft | 475 kts | 139° |
| 2026-04-28 19:23 | 43.97056 | 17.31125 | 37097 ft | 476 kts | 140° |
| 2026-04-28 19:24 | 43.92088 | 17.37119 | 37086 ft | 476 kts | 140° |
| 2026-04-28 19:24 | 43.87051 | 17.43180 | 37093 ft | 476 kts | 140° |
| 2026-04-28 19:25 | 43.82076 | 17.49154 | 37099 ft | 477 kts | 140° |
| 2026-04-28 19:25 | 43.77057 | 17.55167 | 37086 ft | 477 kts | 140° |
| 2026-04-28 19:26 | 43.72031 | 17.61174 | 37072 ft | 478 kts | 140° |
| 2026-04-28 19:26 | 43.66999 | 17.67175 | 37071 ft | 478 kts | 140° |
| 2026-04-28 19:27 | 43.61966 | 17.73159 | 37062 ft | 477 kts | 140° |
| 2026-04-28 19:27 | 43.56947 | 17.79135 | 37063 ft | 476 kts | 142° |
| 2026-04-28 19:28 | 43.51912 | 17.85091 | 37053 ft | 477 kts | 142° |
| 2026-04-28 19:28 | 43.46867 | 17.91045 | 37073 ft | 478 kts | 142° |
| 2026-04-28 19:29 | 43.42662 | 17.96002 | 37070 ft | 479 kts | 142° |
| 2026-04-28 19:29 | 43.36736 | 18.02973 | 37061 ft | 480 kts | 142° |
| 2026-04-28 19:30 | 43.31656 | 18.08936 | 37049 ft | 480 kts | 142° |
| 2026-04-28 19:30 | 43.26599 | 18.14857 | 37071 ft | 481 kts | 142° |
| 2026-04-28 19:31 | 43.21500 | 18.20814 | 37066 ft | 481 kts | 142° |
| 2026-04-28 19:31 | 43.16400 | 18.26759 | 37068 ft | 481 kts | 142° |
| 2026-04-28 19:32 | 43.11290 | 18.32701 | 37078 ft | 481 kts | 142° |
| 2026-04-28 19:32 | 43.06192 | 18.38617 | 37073 ft | 480 kts | 142° |
| 2026-04-28 19:33 | 43.01097 | 18.44516 | 37076 ft | 480 kts | 142° |
| 2026-04-28 19:33 | 42.96037 | 18.50360 | 37076 ft | 479 kts | 142° |
| 2026-04-28 19:34 | 42.90949 | 18.56223 | 37075 ft | 478 kts | 142° |
| 2026-04-28 19:34 | 42.85865 | 18.62071 | 37069 ft | 478 kts | 142° |
| 2026-04-28 19:35 | 42.80786 | 18.67898 | 37072 ft | 477 kts | 142° |
| 2026-04-28 19:35 | 42.75748 | 18.73785 | 37068 ft | 478 kts | 136° |
| 2026-04-28 19:36 | 42.71871 | 18.81134 | 37054 ft | 480 kts | 116° |
| 2026-04-28 19:36 | 42.69094 | 18.89387 | 37071 ft | 480 kts | 114° |
| 2026-04-28 19:37 | 42.66825 | 18.96267 | 37058 ft | 480 kts | 114° |
| 2026-04-28 19:37 | 42.63576 | 19.05918 | 37061 ft | 481 kts | 115° |
| 2026-04-28 19:38 | 42.60754 | 19.14161 | 37052 ft | 482 kts | 115° |
| 2026-04-28 19:38 | 42.57914 | 19.22406 | 37049 ft | 483 kts | 115° |
| 2026-04-28 19:39 | 42.55052 | 19.30694 | 36486 ft | 489 kts | 115° |
| 2026-04-28 19:39 | 42.53614 | 19.34850 | 35956 ft | 486 kts | 115° |
| 2026-04-28 19:39 | 42.52176 | 19.39003 | 35297 ft | 486 kts | 115° |
| 2026-04-28 19:40 | 42.50736 | 19.43154 | 34649 ft | 487 kts | 115° |
| 2026-04-28 19:40 | 42.49292 | 19.47310 | 33960 ft | 488 kts | 114° |
| 2026-04-28 19:40 | 42.47844 | 19.51474 | 33261 ft | 487 kts | 114° |
| 2026-04-28 19:40 | 42.46410 | 19.55593 | 32792 ft | 481 kts | 115° |
| 2026-04-28 19:41 | 42.45003 | 19.59623 | 32308 ft | 477 kts | 115° |
| 2026-04-28 19:41 | 42.43593 | 19.63659 | 31793 ft | 472 kts | 115° |
| 2026-04-28 19:41 | 42.42194 | 19.67657 | 31355 ft | 468 kts | 115° |
| 2026-04-28 19:41 | 42.40807 | 19.71614 | 30866 ft | 464 kts | 115° |
| 2026-04-28 19:42 | 42.39426 | 19.75551 | 30403 ft | 460 kts | 115° |
| 2026-04-28 19:42 | 42.38060 | 19.79439 | 29919 ft | 457 kts | 115° |
| 2026-04-28 19:42 | 42.36699 | 19.83305 | 29379 ft | 453 kts | 115° |
| 2026-04-28 19:42 | 42.35804 | 19.85847 | 29069 ft | 449 kts | 115° |
| 2026-04-28 19:43 | 42.34020 | 19.90905 | 28415 ft | 444 kts | 115° |
| 2026-04-28 19:43 | 42.32695 | 19.94654 | 27950 ft | 439 kts | 115° |
| 2026-04-28 19:43 | 42.31382 | 19.98364 | 27459 ft | 435 kts | 115° |
| 2026-04-28 19:43 | 42.30078 | 20.02046 | 26975 ft | 432 kts | 115° |
| 2026-04-28 19:44 | 42.28788 | 20.05683 | 26522 ft | 429 kts | 115° |
| 2026-04-28 19:44 | 42.27501 | 20.09306 | 26043 ft | 426 kts | 115° |
| 2026-04-28 19:44 | 42.26224 | 20.12899 | 25589 ft | 423 kts | 115° |
| 2026-04-28 19:44 | 42.24952 | 20.16470 | 25123 ft | 421 kts | 115° |
| 2026-04-28 19:45 | 42.23687 | 20.20020 | 24668 ft | 418 kts | 115° |
| 2026-04-28 19:45 | 42.22428 | 20.23546 | 24216 ft | 416 kts | 115° |
| 2026-04-28 19:45 | 42.21175 | 20.27054 | 23762 ft | 414 kts | 115° |
| 2026-04-28 19:45 | 42.19925 | 20.30546 | 23224 ft | 412 kts | 115° |
| 2026-04-28 19:46 | 42.18679 | 20.34024 | 22678 ft | 411 kts | 115° |
| 2026-04-28 19:46 | 42.17458 | 20.37433 | 22184 ft | 408 kts | 115° |
| 2026-04-28 19:46 | 42.16210 | 20.40907 | 21712 ft | 405 kts | 115° |
| 2026-04-28 19:46 | 42.14991 | 20.44318 | 21244 ft | 402 kts | 113° |
| 2026-04-28 19:47 | 42.14282 | 20.47873 | 20800 ft | 395 kts | 92° |
| 2026-04-28 19:47 | 42.14468 | 20.51501 | 20412 ft | 387 kts | 75° |
| 2026-04-28 19:47 | 42.15392 | 20.54855 | 19948 ft | 380 kts | 57° |
| 2026-04-28 19:47 | 42.16777 | 20.57859 | 19529 ft | 376 kts | 53° |
| 2026-04-28 19:48 | 42.18235 | 20.60778 | 19075 ft | 374 kts | 52° |
| 2026-04-28 19:48 | 42.19682 | 20.63683 | 18645 ft | 373 kts | 53° |
| 2026-04-28 19:48 | 42.21106 | 20.66609 | 18184 ft | 371 kts | 53° |
| 2026-04-28 19:48 | 42.22507 | 20.69528 | 17681 ft | 370 kts | 54° |
| 2026-04-28 19:49 | 42.23889 | 20.72428 | 17348 ft | 364 kts | 54° |
| 2026-04-28 19:49 | 42.25251 | 20.75292 | 16947 ft | 360 kts | 54° |
| 2026-04-28 19:49 | 42.26582 | 20.78089 | 16532 ft | 358 kts | 54° |
| 2026-04-28 19:49 | 42.27922 | 20.80907 | 16117 ft | 356 kts | 54° |
| 2026-04-28 19:50 | 42.30592 | 20.86526 | 15267 ft | 354 kts | 55° |
| 2026-04-28 19:50 | 42.31937 | 20.89363 | 14832 ft | 353 kts | 55° |
| 2026-04-28 19:50 | 42.33242 | 20.92117 | 14428 ft | 353 kts | 56° |
| 2026-04-28 19:51 | 42.34566 | 20.94913 | 13990 ft | 353 kts | 56° |
| 2026-04-28 19:51 | 42.35886 | 20.97705 | 13510 ft | 352 kts | 56° |
| 2026-04-28 19:51 | 42.37203 | 21.00490 | 13049 ft | 351 kts | 56° |
| 2026-04-28 19:51 | 42.38514 | 21.03264 | 12595 ft | 348 kts | 56° |
| 2026-04-28 19:52 | 42.39811 | 21.06015 | 12160 ft | 345 kts | 56° |
| 2026-04-28 19:52 | 42.41096 | 21.08743 | 11701 ft | 343 kts | 56° |
| 2026-04-28 19:52 | 42.42372 | 21.11452 | 11298 ft | 340 kts | 56° |
| 2026-04-28 19:52 | 42.43641 | 21.14147 | 10887 ft | 338 kts | 56° |
| 2026-04-28 19:53 | 42.44900 | 21.16824 | 10493 ft | 336 kts | 56° |
| 2026-04-28 19:53 | 42.46111 | 21.19472 | 10350 ft | 326 kts | 62° |
| 2026-04-28 19:53 | 42.46715 | 21.22383 | 10214 ft | 317 kts | 86° |
| 2026-04-28 19:53 | 42.46446 | 21.25285 | 9971 ft | 311 kts | 109° |
| 2026-04-28 19:54 | 42.45458 | 21.27840 | 9846 ft | 300 kts | 126° |
| 2026-04-28 19:54 | 42.43955 | 21.29802 | 9350 ft | 301 kts | 144° |
| 2026-04-28 19:54 | 42.42263 | 21.31490 | 8938 ft | 301 kts | 145° |
| 2026-04-28 19:54 | 42.40598 | 21.33148 | 8593 ft | 295 kts | 144° |
| 2026-04-28 19:55 | 42.38991 | 21.34761 | 8482 ft | 287 kts | 144° |
| 2026-04-28 19:55 | 42.37267 | 21.36008 | 8314 ft | 277 kts | 167° |
| 2026-04-28 19:55 | 42.35401 | 21.36096 | 8182 ft | 266 kts | 193° |
| 2026-04-28 19:55 | 42.33686 | 21.35153 | 7901 ft | 262 kts | 215° |
| 2026-04-28 19:56 | 42.32364 | 21.33528 | 7658 ft | 260 kts | 231° |
| 2026-04-28 19:56 | 42.31248 | 21.31578 | 7368 ft | 260 kts | 234° |
| 2026-04-28 19:56 | 42.30188 | 21.29634 | 7097 ft | 260 kts | 234° |
| 2026-04-28 19:56 | 42.29204 | 21.27595 | 6805 ft | 260 kts | 248° |
| 2026-04-28 19:57 | 42.28916 | 21.25219 | 6543 ft | 257 kts | 275° |
| 2026-04-28 19:57 | 42.29425 | 21.22935 | 6322 ft | 255 kts | 301° |
| 2026-04-28 19:57 | 42.30535 | 21.21077 | 6107 ft | 253 kts | 311° |
| 2026-04-28 19:57 | 42.31698 | 21.19310 | 5873 ft | 251 kts | 311° |
| 2026-04-28 19:58 | 42.32846 | 21.17575 | 5655 ft | 246 kts | 311° |
| 2026-04-28 19:58 | 42.33983 | 21.15847 | 5444 ft | 246 kts | 311° |
| 2026-04-28 19:58 | 42.35108 | 21.14138 | 5228 ft | 242 kts | 311° |
| 2026-04-28 19:58 | 42.36199 | 21.12475 | 5055 ft | 229 kts | 311° |
| 2026-04-28 19:59 | 42.37219 | 21.10915 | 4840 ft | 214 kts | 311° |
| 2026-04-28 19:59 | 42.38169 | 21.09460 | 4659 ft | 199 kts | 311° |
| 2026-04-28 19:59 | 42.39056 | 21.08098 | 4480 ft | 186 kts | 311° |
| 2026-04-28 19:59 | 42.39883 | 21.06826 | 4321 ft | 176 kts | 312° |
| 2026-04-28 20:00 | 42.40760 | 21.05679 | 4185 ft | 177 kts | 332° |
| 2026-04-28 20:00 | 42.41532 | 21.05388 | 4102 ft | 173 kts | 356° |
| 2026-04-28 20:00 | 42.42727 | 21.05170 | 4033 ft | 177 kts | 348° |
| 2026-04-28 20:00 | 42.43921 | 21.04876 | 3963 ft | 168 kts | 354° |
| 2026-04-28 20:01 | 42.45057 | 21.04738 | 3784 ft | 158 kts | 357° |
| 2026-04-28 20:01 | 42.46143 | 21.04632 | 3672 ft | 155 kts | 357° |
| 2026-04-28 20:01 | 42.47212 | 21.04543 | 3538 ft | 152 kts | 357° |
| 2026-04-28 20:01 | 42.48280 | 21.04429 | 3514 ft | 155 kts | 358° |
| 2026-04-28 20:02 | 42.49373 | 21.04328 | 3290 ft | 156 kts | 358° |
| 2026-04-28 20:02 | 42.50444 | 21.04221 | 3055 ft | 151 kts | 356° |
| 2026-04-28 20:02 | 42.51494 | 21.04113 | 2774 ft | 151 kts | 355° |
| 2026-04-28 20:02 | 42.52541 | 21.04033 | 2582 ft | 151 kts | 356° |
| 2026-04-28 20:03 | 42.53603 | 21.03955 | 2354 ft | 153 kts | 355° |
| 2026-04-28 20:03 | 42.54657 | 21.03850 | 2146 ft | 150 kts | 353° |
| 2026-04-28 20:03 | 42.55696 | 21.03744 | 1906 ft | 149 kts | 354° |
| 2026-04-28 20:03 | 42.56652 | 21.03648 | 1780 ft | 133 kts | 354° |
| 2026-04-28 20:04 | 42.57371 | 21.03580 | 1788 ft | 73 kts | 355° |
| 2026-04-28 20:04 | 42.57658 | 21.03551 | 1785 ft | 32 kts | 355° |
| 2026-04-28 20:04 | 42.57849 | 21.03472 | 1763 ft | 25 kts | 330° |
| 2026-04-28 20:04 | 42.57954 | 21.03380 | 1786 ft | 12 kts | 325° |
| 2026-04-28 20:05 | 42.58005 | 21.03320 | 1789 ft | 8 kts | 292° |
| 2026-04-28 20:05 | 42.57971 | 21.03274 | 1788 ft | 9 kts | 179° |
| 2026-04-28 20:05 | 42.57904 | 21.03279 | 1786 ft | 10 kts | 175° |
| 2026-04-28 20:05 | 42.57834 | 21.03287 | 1785 ft | 10 kts | 175° |
| 2026-04-28 20:06 | 42.57765 | 21.03295 | 1786 ft | 11 kts | 175° |
| 2026-04-28 20:06 | 42.57682 | 21.03304 | 1786 ft | 13 kts | 175° |
| 2026-04-28 20:06 | 42.57606 | 21.03289 | 1786 ft | 11 kts | 225° |
| 2026-04-28 20:06 | 42.57554 | 21.03223 | 1786 ft | 11 kts | 194° |
| 2026-04-28 20:07 | 42.57481 | 21.03225 | 1786 ft | 10 kts | 175° |
| 2026-04-28 20:07 | 42.57443 | 21.03226 | 1786 ft | 7 kts | 189° |
| 2026-04-28 20:07 | 42.57418 | 21.03151 | 1786 ft | 7 kts | 264° |
| 2026-04-28 20:07 | 42.57416 | 21.03118 | 1786 ft | 0 kts | 265° |